sensor_id;sensor_type;location;lat;lon;timestamp;temperature;humidity
56542;DHT22;42438;53.174;6.730;2023-06-26T00:02:12;23.10;1.00
56542;DHT22;42438;53.174;6.730;2023-06-26T00:04:43;23.10;1.00
56542;DHT22;42438;53.174;6.730;2023-06-26T00:07:14;23.10;1.00
56542;DHT22;42438;53.174;6.730;2023-06-26T00:09:45;23.00;1.00
56542;DHT22;42438;53.174;6.730;2023-06-26T00:12:16;23.00;1.00
56542;DHT22;42438;53.174;6.730;2023-06-26T00:14:46;23.00;1.00
56542;DHT22;42438;53.174;6.730;2023-06-26T00:17:18;23.00;1.00
56542;DHT22;42438;53.174;6.730;2023-06-26T00:19:49;23.00;1.00
56542;DHT22;42438;53.174;6.730;2023-06-26T00:22:21;22.90;1.00
56542;DHT22;42438;53.174;6.730;2023-06-26T00:24:52;22.90;1.00
56542;DHT22;42438;53.174;6.730;2023-06-26T00:27:23;22.90;1.00
56542;DHT22;42438;53.174;6.730;2023-06-26T00:29:53;22.90;1.00
56542;DHT22;42438;53.174;6.730;2023-06-26T00:32:24;22.90;1.00
56542;DHT22;42438;53.174;6.730;2023-06-26T00:34:55;22.90;1.00
56542;DHT22;42438;53.174;6.730;2023-06-26T00:37:25;22.90;1.00
56542;DHT22;42438;53.174;6.730;2023-06-26T00:39:56;22.90;1.00
56542;DHT22;42438;53.174;6.730;2023-06-26T00:42:27;22.90;1.00
56542;DHT22;42438;53.174;6.730;2023-06-26T00:44:58;22.90;1.00
56542;DHT22;42438;53.174;6.730;2023-06-26T00:47:28;22.90;1.00
56542;DHT22;42438;53.174;6.730;2023-06-26T00:49:59;22.80;1.00
56542;DHT22;42438;53.174;6.730;2023-06-26T00:52:31;22.80;1.00
56542;DHT22;42438;53.174;6.730;2023-06-26T00:55:02;22.80;1.00
56542;DHT22;42438;53.174;6.730;2023-06-26T00:57:34;22.80;1.00
56542;DHT22;42438;53.174;6.730;2023-06-26T01:00:06;22.70;1.00
56542;DHT22;42438;53.174;6.730;2023-06-26T01:02:37;22.70;1.00
56542;DHT22;42438;53.174;6.730;2023-06-26T01:05:09;22.60;1.00
56542;DHT22;42438;53.174;6.730;2023-06-26T01:07:43;22.60;1.00
56542;DHT22;42438;53.174;6.730;2023-06-26T01:10:14;22.60;1.00
56542;DHT22;42438;53.174;6.730;2023-06-26T01:12:45;22.60;1.00
56542;DHT22;42438;53.174;6.730;2023-06-26T01:15:15;22.50;1.00
56542;DHT22;42438;53.174;6.730;2023-06-26T01:17:46;22.50;1.00
56542;DHT22;42438;53.174;6.730;2023-06-26T01:20:19;22.50;1.00
56542;DHT22;42438;53.174;6.730;2023-06-26T01:23:17;22.40;1.00
56542;DHT22;42438;53.174;6.730;2023-06-26T01:28:22;22.30;1.00
56542;DHT22;42438;53.174;6.730;2023-06-26T01:30:54;22.30;1.00
56542;DHT22;42438;53.174;6.730;2023-06-26T01:33:27;22.20;1.00
56542;DHT22;42438;53.174;6.730;2023-06-26T01:35:57;22.20;1.00
56542;DHT22;42438;53.174;6.730;2023-06-26T01:38:28;22.20;1.00
56542;DHT22;42438;53.174;6.730;2023-06-26T01:40:59;22.10;1.00
56542;DHT22;42438;53.174;6.730;2023-06-26T01:49:19;22.10;1.00
56542;DHT22;42438;53.174;6.730;2023-06-26T01:52:02;22.00;1.00
56542;DHT22;42438;53.174;6.730;2023-06-26T01:54:39;22.00;1.00
56542;DHT22;42438;53.174;6.730;2023-06-26T01:57:11;22.00;1.00
56542;DHT22;42438;53.174;6.730;2023-06-26T01:59:42;21.90;1.00
56542;DHT22;42438;53.174;6.730;2023-06-26T02:02:13;22.00;1.00
56542;DHT22;42438;53.174;6.730;2023-06-26T02:04:43;21.90;1.00
56542;DHT22;42438;53.174;6.730;2023-06-26T02:07:14;21.90;1.00
56542;DHT22;42438;53.174;6.730;2023-06-26T02:09:45;21.90;1.00
56542;DHT22;42438;53.174;6.730;2023-06-26T02:12:15;21.80;1.00
56542;DHT22;42438;53.174;6.730;2023-06-26T02:14:46;21.80;1.00
56542;DHT22;42438;53.174;6.730;2023-06-26T02:17:17;21.80;1.00
56542;DHT22;42438;53.174;6.730;2023-06-26T02:19:47;21.70;1.00
56542;DHT22;42438;53.174;6.730;2023-06-26T02:22:18;21.70;7.70
56542;DHT22;42438;53.174;6.730;2023-06-26T02:24:49;21.70;9.20
56542;DHT22;42438;53.174;6.730;2023-06-26T02:27:19;21.70;15.60
56542;DHT22;42438;53.174;6.730;2023-06-26T02:29:50;21.60;24.40
56542;DHT22;42438;53.174;6.730;2023-06-26T02:32:21;21.60;30.40
56542;DHT22;42438;53.174;6.730;2023-06-26T02:34:51;21.60;45.00
56542;DHT22;42438;53.174;6.730;2023-06-26T02:37:22;21.50;47.30
56542;DHT22;42438;53.174;6.730;2023-06-26T02:39:53;21.50;67.80
56542;DHT22;42438;53.174;6.730;2023-06-26T02:42:23;21.50;92.00
56542;DHT22;42438;53.174;6.730;2023-06-26T02:44:54;21.40;99.80
56542;DHT22;42438;53.174;6.730;2023-06-26T02:47:24;21.40;99.90
56542;DHT22;42438;53.174;6.730;2023-06-26T02:49:55;21.30;99.90
56542;DHT22;42438;53.174;6.730;2023-06-26T02:52:26;21.30;99.90
56542;DHT22;42438;53.174;6.730;2023-06-26T02:54:59;21.20;99.90
56542;DHT22;42438;53.174;6.730;2023-06-26T02:57:30;21.20;99.90
56542;DHT22;42438;53.174;6.730;2023-06-26T03:00:01;21.10;99.90
56542;DHT22;42438;53.174;6.730;2023-06-26T03:02:31;21.00;99.90
56542;DHT22;42438;53.174;6.730;2023-06-26T03:05:02;21.10;99.90
56542;DHT22;42438;53.174;6.730;2023-06-26T03:07:33;21.00;99.90
56542;DHT22;42438;53.174;6.730;2023-06-26T03:10:04;21.00;99.90
56542;DHT22;42438;53.174;6.730;2023-06-26T03:12:35;21.00;99.90
56542;DHT22;42438;53.174;6.730;2023-06-26T03:15:06;20.90;99.90
56542;DHT22;42438;53.174;6.730;2023-06-26T03:17:37;20.90;99.90
56542;DHT22;42438;53.174;6.730;2023-06-26T03:20:08;20.90;99.90
56542;DHT22;42438;53.174;6.730;2023-06-26T03:22:39;20.90;99.90
56542;DHT22;42438;53.174;6.730;2023-06-26T03:25:10;20.90;99.90
56542;DHT22;42438;53.174;6.730;2023-06-26T03:27:40;20.90;99.90
56542;DHT22;42438;53.174;6.730;2023-06-26T03:30:11;20.90;99.90
56542;DHT22;42438;53.174;6.730;2023-06-26T03:32:42;21.00;99.90
56542;DHT22;42438;53.174;6.730;2023-06-26T03:35:13;21.00;99.90
56542;DHT22;42438;53.174;6.730;2023-06-26T03:37:44;21.10;99.90
56542;DHT22;42438;53.174;6.730;2023-06-26T03:40:15;21.20;99.90
56542;DHT22;42438;53.174;6.730;2023-06-26T03:42:46;21.30;99.90
56542;DHT22;42438;53.174;6.730;2023-06-26T03:45:16;21.40;99.90
56542;DHT22;42438;53.174;6.730;2023-06-26T03:47:47;21.40;99.90
56542;DHT22;42438;53.174;6.730;2023-06-26T03:50:19;21.50;99.90
56542;DHT22;42438;53.174;6.730;2023-06-26T03:52:50;21.60;99.90
56542;DHT22;42438;53.174;6.730;2023-06-26T03:55:21;21.70;99.90
56542;DHT22;42438;53.174;6.730;2023-06-26T03:57:54;21.80;99.90
56542;DHT22;42438;53.174;6.730;2023-06-26T04:00:24;21.80;99.90
56542;DHT22;42438;53.174;6.730;2023-06-26T04:02:55;21.80;99.90
56542;DHT22;42438;53.174;6.730;2023-06-26T04:05:26;21.80;99.90
56542;DHT22;42438;53.174;6.730;2023-06-26T04:07:56;21.90;99.90
56542;DHT22;42438;53.174;6.730;2023-06-26T04:10:27;21.80;99.90
56542;DHT22;42438;53.174;6.730;2023-06-26T04:12:58;21.80;99.90
56542;DHT22;42438;53.174;6.730;2023-06-26T04:15:28;21.80;99.90
56542;DHT22;42438;53.174;6.730;2023-06-26T04:17:59;21.80;99.90
56542;DHT22;42438;53.174;6.730;2023-06-26T04:20:30;21.90;99.90
56542;DHT22;42438;53.174;6.730;2023-06-26T04:23:01;21.70;99.90
56542;DHT22;42438;53.174;6.730;2023-06-26T04:25:32;21.70;99.90
56542;DHT22;42438;53.174;6.730;2023-06-26T04:28:02;21.60;99.90
56542;DHT22;42438;53.174;6.730;2023-06-26T04:30:33;21.60;99.90
56542;DHT22;42438;53.174;6.730;2023-06-26T04:33:05;21.60;99.90
56542;DHT22;42438;53.174;6.730;2023-06-26T04:35:35;21.60;99.90
56542;DHT22;42438;53.174;6.730;2023-06-26T04:38:07;21.60;99.90
56542;DHT22;42438;53.174;6.730;2023-06-26T04:40:39;21.70;99.90
56542;DHT22;42438;53.174;6.730;2023-06-26T04:43:10;21.80;99.90
56542;DHT22;42438;53.174;6.730;2023-06-26T04:45:41;21.80;99.90
56542;DHT22;42438;53.174;6.730;2023-06-26T04:48:12;21.80;99.90
56542;DHT22;42438;53.174;6.730;2023-06-26T04:50:43;21.80;1.00
56542;DHT22;42438;53.174;6.730;2023-06-26T04:53:13;21.90;1.00
56542;DHT22;42438;53.174;6.730;2023-06-26T04:55:44;21.90;1.00
56542;DHT22;42438;53.174;6.730;2023-06-26T04:58:15;22.00;1.00
56542;DHT22;42438;53.174;6.730;2023-06-26T05:00:45;22.10;1.00
56542;DHT22;42438;53.174;6.730;2023-06-26T05:03:17;22.20;1.00
56542;DHT22;42438;53.174;6.730;2023-06-26T05:05:48;22.20;1.00
56542;DHT22;42438;53.174;6.730;2023-06-26T05:08:22;22.20;1.00
56542;DHT22;42438;53.174;6.730;2023-06-26T05:10:53;22.20;61.30
56542;DHT22;42438;53.174;6.730;2023-06-26T05:13:24;22.20;99.90
56542;DHT22;42438;53.174;6.730;2023-06-26T05:15:55;22.20;90.30
56542;DHT22;42438;53.174;6.730;2023-06-26T05:18:26;22.20;12.90
56542;DHT22;42438;53.174;6.730;2023-06-26T05:20:57;22.20;1.00
56542;DHT22;42438;53.174;6.730;2023-06-26T05:23:30;22.00;47.80
56542;DHT22;42438;53.174;6.730;2023-06-26T05:26:02;21.80;99.90
56542;DHT22;42438;53.174;6.730;2023-06-26T05:28:33;21.70;1.00
56542;DHT22;42438;53.174;6.730;2023-06-26T05:31:06;21.60;58.80
56542;DHT22;42438;53.174;6.730;2023-06-26T05:33:37;21.50;99.90
56542;DHT22;42438;53.174;6.730;2023-06-26T05:36:09;21.40;1.00
56542;DHT22;42438;53.174;6.730;2023-06-26T05:38:40;21.40;99.90
56542;DHT22;42438;53.174;6.730;2023-06-26T05:41:11;21.10;99.90
56542;DHT22;42438;53.174;6.730;2023-06-26T05:43:41;20.90;1.00
56542;DHT22;42438;53.174;6.730;2023-06-26T05:46:12;20.60;1.00
56542;DHT22;42438;53.174;6.730;2023-06-26T05:48:43;20.40;99.90
56542;DHT22;42438;53.174;6.730;2023-06-26T05:51:14;20.30;1.00
56542;DHT22;42438;53.174;6.730;2023-06-26T05:53:45;20.10;98.30
56542;DHT22;42438;53.174;6.730;2023-06-26T05:56:15;20.00;99.90
56542;DHT22;42438;53.174;6.730;2023-06-26T05:58:47;19.90;99.90
56542;DHT22;42438;53.174;6.730;2023-06-26T06:01:18;19.90;1.00
56542;DHT22;42438;53.174;6.730;2023-06-26T06:03:50;19.80;1.00
56542;DHT22;42438;53.174;6.730;2023-06-26T06:06:20;19.70;1.00
56542;DHT22;42438;53.174;6.730;2023-06-26T06:08:51;19.60;1.00
56542;DHT22;42438;53.174;6.730;2023-06-26T06:11:22;19.60;1.00
56542;DHT22;42438;53.174;6.730;2023-06-26T06:13:53;19.50;28.60
56542;DHT22;42438;53.174;6.730;2023-06-26T06:16:24;19.50;32.70
56542;DHT22;42438;53.174;6.730;2023-06-26T06:18:54;19.50;64.30
56542;DHT22;42438;53.174;6.730;2023-06-26T06:21:25;19.50;99.90
56542;DHT22;42438;53.174;6.730;2023-06-26T06:23:56;19.60;99.90
56542;DHT22;42438;53.174;6.730;2023-06-26T06:26:26;20.10;99.90
56542;DHT22;42438;53.174;6.730;2023-06-26T06:28:57;20.50;1.00
56542;DHT22;42438;53.174;6.730;2023-06-26T06:31:28;20.60;1.00
56542;DHT22;42438;53.174;6.730;2023-06-26T06:33:58;20.50;1.00
56542;DHT22;42438;53.174;6.730;2023-06-26T06:36:29;20.50;1.00
56542;DHT22;42438;53.174;6.730;2023-06-26T06:39:00;20.60;99.90
56542;DHT22;42438;53.174;6.730;2023-06-26T06:41:31;20.50;99.90
56542;DHT22;42438;53.174;6.730;2023-06-26T06:44:01;20.60;99.90
56542;DHT22;42438;53.174;6.730;2023-06-26T06:46:32;20.60;1.00
56542;DHT22;42438;53.174;6.730;2023-06-26T06:49:03;20.50;99.90
56542;DHT22;42438;53.174;6.730;2023-06-26T06:51:34;20.50;99.90
56542;DHT22;42438;53.174;6.730;2023-06-26T06:54:08;20.40;1.00
56542;DHT22;42438;53.174;6.730;2023-06-26T06:56:38;20.40;1.00
56542;DHT22;42438;53.174;6.730;2023-06-26T06:59:09;20.60;99.90
56542;DHT22;42438;53.174;6.730;2023-06-26T07:01:40;20.70;1.00
56542;DHT22;42438;53.174;6.730;2023-06-26T07:04:11;20.80;1.00
56542;DHT22;42438;53.174;6.730;2023-06-26T07:06:41;20.90;99.90
56542;DHT22;42438;53.174;6.730;2023-06-26T07:09:12;21.10;99.90
56542;DHT22;42438;53.174;6.730;2023-06-26T07:11:43;21.00;1.00
56542;DHT22;42438;53.174;6.730;2023-06-26T07:14:13;20.80;99.90
56542;DHT22;42438;53.174;6.730;2023-06-26T07:16:44;20.90;1.00
56542;DHT22;42438;53.174;6.730;2023-06-26T07:19:15;21.00;1.00
56542;DHT22;42438;53.174;6.730;2023-06-26T07:21:45;21.00;99.90
56542;DHT22;42438;53.174;6.730;2023-06-26T07:24:16;21.20;99.90
56542;DHT22;42438;53.174;6.730;2023-06-26T07:26:47;21.30;1.00
56542;DHT22;42438;53.174;6.730;2023-06-26T07:29:18;21.40;99.90
56542;DHT22;42438;53.174;6.730;2023-06-26T07:31:48;21.50;99.90
56542;DHT22;42438;53.174;6.730;2023-06-26T07:34:19;21.40;1.00
56542;DHT22;42438;53.174;6.730;2023-06-26T07:36:50;21.30;92.30
56542;DHT22;42438;53.174;6.730;2023-06-26T07:39:20;21.30;25.80
56542;DHT22;42438;53.174;6.730;2023-06-26T07:41:51;21.30;99.90
56542;DHT22;42438;53.174;6.730;2023-06-26T07:44:22;21.30;99.90
56542;DHT22;42438;53.174;6.730;2023-06-26T07:46:52;21.40;99.90
56542;DHT22;42438;53.174;6.730;2023-06-26T07:49:23;21.30;26.30
56542;DHT22;42438;53.174;6.730;2023-06-26T07:51:54;21.50;1.00
56542;DHT22;42438;53.174;6.730;2023-06-26T07:54:24;21.60;1.00
56542;DHT22;42438;53.174;6.730;2023-06-26T07:56:58;21.70;99.90
56542;DHT22;42438;53.174;6.730;2023-06-26T07:59:29;21.90;99.90
56542;DHT22;42438;53.174;6.730;2023-06-26T08:02:01;22.00;99.90
56542;DHT22;42438;53.174;6.730;2023-06-26T08:04:32;21.90;99.90
56542;DHT22;42438;53.174;6.730;2023-06-26T08:07:04;22.10;99.90
56542;DHT22;42438;53.174;6.730;2023-06-26T08:09:35;22.00;99.90
56542;DHT22;42438;53.174;6.730;2023-06-26T08:12:06;21.80;99.90
56542;DHT22;42438;53.174;6.730;2023-06-26T08:14:36;21.80;73.20
56542;DHT22;42438;53.174;6.730;2023-06-26T08:17:07;21.70;32.90
56542;DHT22;42438;53.174;6.730;2023-06-26T08:19:38;21.70;20.30
56542;DHT22;42438;53.174;6.730;2023-06-26T08:22:08;21.80;1.00
56542;DHT22;42438;53.174;6.730;2023-06-26T08:24:39;22.10;90.60
56542;DHT22;42438;53.174;6.730;2023-06-26T08:27:10;22.30;27.50
56542;DHT22;42438;53.174;6.730;2023-06-26T08:29:40;22.10;1.00
56542;DHT22;42438;53.174;6.730;2023-06-26T08:32:11;21.90;1.00
56542;DHT22;42438;53.174;6.730;2023-06-26T08:34:42;21.70;1.00
56542;DHT22;42438;53.174;6.730;2023-06-26T08:37:12;21.60;1.00
56542;DHT22;42438;53.174;6.730;2023-06-26T08:39:43;21.80;1.00
56542;DHT22;42438;53.174;6.730;2023-06-26T08:42:14;22.10;1.00
56542;DHT22;42438;53.174;6.730;2023-06-26T08:44:44;22.40;1.00
56542;DHT22;42438;53.174;6.730;2023-06-26T08:47:15;22.30;1.00
56542;DHT22;42438;53.174;6.730;2023-06-26T08:50:01;22.10;1.00
56542;DHT22;42438;53.174;6.730;2023-06-26T08:52:37;22.30;1.00
56542;DHT22;42438;53.174;6.730;2023-06-26T08:55:10;22.60;1.00
56542;DHT22;42438;53.174;6.730;2023-06-26T08:57:42;22.60;1.00
56542;DHT22;42438;53.174;6.730;2023-06-26T09:00:14;22.40;1.00
56542;DHT22;42438;53.174;6.730;2023-06-26T09:02:45;22.20;1.00
56542;DHT22;42438;53.174;6.730;2023-06-26T09:05:16;22.10;1.00
56542;DHT22;42438;53.174;6.730;2023-06-26T09:07:47;22.20;1.00
56542;DHT22;42438;53.174;6.730;2023-06-26T09:10:18;22.20;1.00
56542;DHT22;42438;53.174;6.730;2023-06-26T09:12:49;22.60;1.00
56542;DHT22;42438;53.174;6.730;2023-06-26T09:15:20;23.10;1.00
56542;DHT22;42438;53.174;6.730;2023-06-26T09:17:56;22.90;1.00
56542;DHT22;42438;53.174;6.730;2023-06-26T09:20:30;22.70;1.00
56542;DHT22;42438;53.174;6.730;2023-06-26T09:23:04;23.00;1.00
56542;DHT22;42438;53.174;6.730;2023-06-26T09:25:39;23.10;1.00
56542;DHT22;42438;53.174;6.730;2023-06-26T09:28:10;22.90;1.00
56542;DHT22;42438;53.174;6.730;2023-06-26T09:30:41;22.70;1.00
56542;DHT22;42438;53.174;6.730;2023-06-26T09:33:21;22.50;1.00
56542;DHT22;42438;53.174;6.730;2023-06-26T09:35:52;22.40;1.00
56542;DHT22;42438;53.174;6.730;2023-06-26T09:38:23;22.40;1.00
56542;DHT22;42438;53.174;6.730;2023-06-26T09:40:54;22.40;1.00
56542;DHT22;42438;53.174;6.730;2023-06-26T09:43:25;22.70;1.00
56542;DHT22;42438;53.174;6.730;2023-06-26T09:45:56;23.10;1.00
56542;DHT22;42438;53.174;6.730;2023-06-26T09:48:28;23.20;1.00
56542;DHT22;42438;53.174;6.730;2023-06-26T09:51:00;22.90;1.00
56542;DHT22;42438;53.174;6.730;2023-06-26T09:53:35;22.90;1.00
56542;DHT22;42438;53.174;6.730;2023-06-26T09:56:15;22.80;1.00
56542;DHT22;42438;53.174;6.730;2023-06-26T09:58:48;22.90;1.00
56542;DHT22;42438;53.174;6.730;2023-06-26T10:01:19;23.20;1.00
56542;DHT22;42438;53.174;6.730;2023-06-26T10:03:50;23.60;1.00
56542;DHT22;42438;53.174;6.730;2023-06-26T10:06:27;23.60;1.00
56542;DHT22;42438;53.174;6.730;2023-06-26T10:09:00;23.20;1.00
56542;DHT22;42438;53.174;6.730;2023-06-26T10:11:46;22.80;1.00
56542;DHT22;42438;53.174;6.730;2023-06-26T10:14:20;22.70;1.00
56542;DHT22;42438;53.174;6.730;2023-06-26T10:16:52;22.90;1.00
56542;DHT22;42438;53.174;6.730;2023-06-26T10:19:27;22.80;1.00
56542;DHT22;42438;53.174;6.730;2023-06-26T10:21:59;23.10;1.00
56542;DHT22;42438;53.174;6.730;2023-06-26T10:24:33;23.50;1.00
56542;DHT22;42438;53.174;6.730;2023-06-26T10:27:10;23.70;1.00
56542;DHT22;42438;53.174;6.730;2023-06-26T10:29:53;23.90;1.00
56542;DHT22;42438;53.174;6.730;2023-06-26T10:32:26;23.40;1.00
56542;DHT22;42438;53.174;6.730;2023-06-26T10:34:58;22.90;1.00
56542;DHT22;42438;53.174;6.730;2023-06-26T10:37:42;22.70;1.00
56542;DHT22;42438;53.174;6.730;2023-06-26T10:40:21;23.20;1.00
56542;DHT22;42438;53.174;6.730;2023-06-26T10:43:06;23.60;1.00
56542;DHT22;42438;53.174;6.730;2023-06-26T10:45:49;23.90;1.00
56542;DHT22;42438;53.174;6.730;2023-06-26T10:48:29;23.90;1.00
56542;DHT22;42438;53.174;6.730;2023-06-26T10:51:13;23.90;1.00
56542;DHT22;42438;53.174;6.730;2023-06-26T10:53:53;23.90;1.00
56542;DHT22;42438;53.174;6.730;2023-06-26T10:56:55;24.30;1.00
56542;DHT22;42438;53.174;6.730;2023-06-26T10:59:30;24.70;1.00
56542;DHT22;42438;53.174;6.730;2023-06-26T11:02:04;24.70;1.00
56542;DHT22;42438;53.174;6.730;2023-06-26T11:04:45;24.10;1.00
56542;DHT22;42438;53.174;6.730;2023-06-26T11:07:23;24.00;1.00
56542;DHT22;42438;53.174;6.730;2023-06-26T11:10:09;24.40;1.00
56542;DHT22;42438;53.174;6.730;2023-06-26T11:12:42;24.50;1.00
56542;DHT22;42438;53.174;6.730;2023-06-26T11:15:14;24.70;1.00
56542;DHT22;42438;53.174;6.730;2023-06-26T11:17:45;24.90;1.00
56542;DHT22;42438;53.174;6.730;2023-06-26T11:20:16;24.70;1.00
56542;DHT22;42438;53.174;6.730;2023-06-26T11:22:48;24.50;1.00
56542;DHT22;42438;53.174;6.730;2023-06-26T11:25:23;24.20;1.00
56542;DHT22;42438;53.174;6.730;2023-06-26T11:27:54;24.20;1.00
56542;DHT22;42438;53.174;6.730;2023-06-26T11:30:25;24.00;1.00
56542;DHT22;42438;53.174;6.730;2023-06-26T11:33:08;23.50;1.00
56542;DHT22;42438;53.174;6.730;2023-06-26T11:35:39;23.60;1.00
56542;DHT22;42438;53.174;6.730;2023-06-26T11:38:10;23.70;1.00
56542;DHT22;42438;53.174;6.730;2023-06-26T11:40:40;23.80;1.00
56542;DHT22;42438;53.174;6.730;2023-06-26T11:43:11;24.00;1.00
56542;DHT22;42438;53.174;6.730;2023-06-26T11:45:42;24.00;1.00
56542;DHT22;42438;53.174;6.730;2023-06-26T11:48:12;24.10;1.00
56542;DHT22;42438;53.174;6.730;2023-06-26T11:50:43;23.90;1.00
56542;DHT22;42438;53.174;6.730;2023-06-26T11:53:15;23.80;1.00
56542;DHT22;42438;53.174;6.730;2023-06-26T11:55:45;23.40;1.00
56542;DHT22;42438;53.174;6.730;2023-06-26T11:58:16;23.30;1.00
56542;DHT22;42438;53.174;6.730;2023-06-26T12:00:47;23.40;1.00
56542;DHT22;42438;53.174;6.730;2023-06-26T12:03:18;23.60;1.00
56542;DHT22;42438;53.174;6.730;2023-06-26T12:05:49;23.60;1.00
56542;DHT22;42438;53.174;6.730;2023-06-26T12:08:22;23.40;1.00
56542;DHT22;42438;53.174;6.730;2023-06-26T12:10:53;23.00;1.00
56542;DHT22;42438;53.174;6.730;2023-06-26T12:13:24;23.30;1.00
56542;DHT22;42438;53.174;6.730;2023-06-26T12:15:55;23.60;1.00
56542;DHT22;42438;53.174;6.730;2023-06-26T12:18:26;23.60;1.00
56542;DHT22;42438;53.174;6.730;2023-06-26T12:21:03;24.00;1.00
56542;DHT22;42438;53.174;6.730;2023-06-26T12:23:43;24.20;1.00
56542;DHT22;42438;53.174;6.730;2023-06-26T12:26:20;24.10;1.00
56542;DHT22;42438;53.174;6.730;2023-06-26T12:28:51;23.80;1.00
56542;DHT22;42438;53.174;6.730;2023-06-26T12:31:22;23.60;1.00
56542;DHT22;42438;53.174;6.730;2023-06-26T12:33:52;23.20;1.00
56542;DHT22;42438;53.174;6.730;2023-06-26T12:36:23;22.90;1.00
56542;DHT22;42438;53.174;6.730;2023-06-26T12:38:54;22.80;1.00
56542;DHT22;42438;53.174;6.730;2023-06-26T12:41:25;22.70;1.00
56542;DHT22;42438;53.174;6.730;2023-06-26T12:43:56;22.90;1.00
56542;DHT22;42438;53.174;6.730;2023-06-26T12:46:36;23.30;1.00
56542;DHT22;42438;53.174;6.730;2023-06-26T12:49:08;23.50;1.00
56542;DHT22;42438;53.174;6.730;2023-06-26T12:51:39;23.70;1.00
56542;DHT22;42438;53.174;6.730;2023-06-26T12:54:10;23.90;1.00
56542;DHT22;42438;53.174;6.730;2023-06-26T12:56:41;24.00;1.00
56542;DHT22;42438;53.174;6.730;2023-06-26T12:59:12;24.20;1.00
56542;DHT22;42438;53.174;6.730;2023-06-26T13:01:42;24.00;1.00
56542;DHT22;42438;53.174;6.730;2023-06-26T13:04:14;23.80;1.00
56542;DHT22;42438;53.174;6.730;2023-06-26T13:06:44;23.50;1.00
56542;DHT22;42438;53.174;6.730;2023-06-26T13:09:16;23.20;1.00
56542;DHT22;42438;53.174;6.730;2023-06-26T13:11:47;22.90;1.00
56542;DHT22;42438;53.174;6.730;2023-06-26T13:14:18;22.70;1.00
56542;DHT22;42438;53.174;6.730;2023-06-26T13:16:49;22.30;1.00
56542;DHT22;42438;53.174;6.730;2023-06-26T13:19:20;22.20;1.00
56542;DHT22;42438;53.174;6.730;2023-06-26T13:21:51;22.40;1.00
56542;DHT22;42438;53.174;6.730;2023-06-26T13:24:21;22.50;1.00
56542;DHT22;42438;53.174;6.730;2023-06-26T13:26:52;22.50;1.00
56542;DHT22;42438;53.174;6.730;2023-06-26T13:29:22;22.70;1.00
56542;DHT22;42438;53.174;6.730;2023-06-26T13:31:53;22.80;1.00
56542;DHT22;42438;53.174;6.730;2023-06-26T13:34:24;23.10;1.00
56542;DHT22;42438;53.174;6.730;2023-06-26T13:36:58;23.40;1.00
56542;DHT22;42438;53.174;6.730;2023-06-26T13:39:30;23.20;1.00
56542;DHT22;42438;53.174;6.730;2023-06-26T13:42:01;22.90;1.00
56542;DHT22;42438;53.174;6.730;2023-06-26T13:44:31;22.70;1.00
56542;DHT22;42438;53.174;6.730;2023-06-26T13:47:02;22.50;1.00
56542;DHT22;42438;53.174;6.730;2023-06-26T13:49:33;22.50;1.00
56542;DHT22;42438;53.174;6.730;2023-06-26T13:52:04;22.40;1.00
56542;DHT22;42438;53.174;6.730;2023-06-26T13:54:36;22.40;1.00
56542;DHT22;42438;53.174;6.730;2023-06-26T13:57:09;22.60;1.00
56542;DHT22;42438;53.174;6.730;2023-06-26T13:59:40;22.80;1.00
56542;DHT22;42438;53.174;6.730;2023-06-26T14:02:11;22.80;1.00
56542;DHT22;42438;53.174;6.730;2023-06-26T14:04:41;22.50;1.00
56542;DHT22;42438;53.174;6.730;2023-06-26T14:07:12;22.30;1.00
56542;DHT22;42438;53.174;6.730;2023-06-26T14:09:43;22.20;1.00
56542;DHT22;42438;53.174;6.730;2023-06-26T14:12:13;22.40;1.00
56542;DHT22;42438;53.174;6.730;2023-06-26T14:14:44;22.60;1.00
56542;DHT22;42438;53.174;6.730;2023-06-26T14:17:15;22.40;1.00
56542;DHT22;42438;53.174;6.730;2023-06-26T14:19:46;22.20;1.00
56542;DHT22;42438;53.174;6.730;2023-06-26T14:22:18;22.20;1.00
56542;DHT22;42438;53.174;6.730;2023-06-26T14:24:49;22.10;1.00
56542;DHT22;42438;53.174;6.730;2023-06-26T14:27:19;22.20;1.00
56542;DHT22;42438;53.174;6.730;2023-06-26T14:29:50;22.30;1.00
56542;DHT22;42438;53.174;6.730;2023-06-26T14:32:21;22.50;1.00
56542;DHT22;42438;53.174;6.730;2023-06-26T14:34:51;22.30;1.00
56542;DHT22;42438;53.174;6.730;2023-06-26T14:37:22;22.20;1.00
56542;DHT22;42438;53.174;6.730;2023-06-26T14:39:53;22.20;1.00
56542;DHT22;42438;53.174;6.730;2023-06-26T14:42:23;22.30;1.00
56542;DHT22;42438;53.174;6.730;2023-06-26T14:44:54;22.10;1.00
56542;DHT22;42438;53.174;6.730;2023-06-26T14:47:25;22.10;1.00
56542;DHT22;42438;53.174;6.730;2023-06-26T14:49:55;22.10;1.00
56542;DHT22;42438;53.174;6.730;2023-06-26T14:52:26;22.20;1.00
56542;DHT22;42438;53.174;6.730;2023-06-26T14:54:57;22.60;1.00
56542;DHT22;42438;53.174;6.730;2023-06-26T14:57:27;22.70;1.00
56542;DHT22;42438;53.174;6.730;2023-06-26T14:59:58;22.50;1.00
56542;DHT22;42438;53.174;6.730;2023-06-26T15:02:29;22.10;1.00
56542;DHT22;42438;53.174;6.730;2023-06-26T15:04:59;21.80;1.00
56542;DHT22;42438;53.174;6.730;2023-06-26T15:07:30;21.60;1.00
56542;DHT22;42438;53.174;6.730;2023-06-26T15:10:01;21.50;1.00
56542;DHT22;42438;53.174;6.730;2023-06-26T15:12:32;21.30;1.00
56542;DHT22;42438;53.174;6.730;2023-06-26T15:15:04;21.10;1.00
56542;DHT22;42438;53.174;6.730;2023-06-26T15:17:34;21.20;1.00
56542;DHT22;42438;53.174;6.730;2023-06-26T15:20:06;21.40;1.00
56542;DHT22;42438;53.174;6.730;2023-06-26T15:22:36;21.30;1.00
56542;DHT22;42438;53.174;6.730;2023-06-26T15:25:07;21.10;1.00
56542;DHT22;42438;53.174;6.730;2023-06-26T15:27:38;21.10;1.00
56542;DHT22;42438;53.174;6.730;2023-06-26T15:30:09;20.90;1.00
56542;DHT22;42438;53.174;6.730;2023-06-26T15:32:40;20.90;1.00
56542;DHT22;42438;53.174;6.730;2023-06-26T15:35:10;20.90;1.00
56542;DHT22;42438;53.174;6.730;2023-06-26T15:37:41;20.60;1.00
56542;DHT22;42438;53.174;6.730;2023-06-26T15:40:12;20.60;1.00
56542;DHT22;42438;53.174;6.730;2023-06-26T15:42:50;20.40;1.00
56542;DHT22;42438;53.174;6.730;2023-06-26T15:45:21;20.60;1.00
56542;DHT22;42438;53.174;6.730;2023-06-26T15:47:53;20.90;1.00
56542;DHT22;42438;53.174;6.730;2023-06-26T15:50:24;20.80;1.00
56542;DHT22;42438;53.174;6.730;2023-06-26T15:52:55;21.20;1.00
56542;DHT22;42438;53.174;6.730;2023-06-26T15:55:25;21.60;1.00
56542;DHT22;42438;53.174;6.730;2023-06-26T15:57:56;21.70;1.00
56542;DHT22;42438;53.174;6.730;2023-06-26T16:00:27;21.70;1.00
56542;DHT22;42438;53.174;6.730;2023-06-26T16:02:58;21.70;1.00
56542;DHT22;42438;53.174;6.730;2023-06-26T16:05:28;21.50;1.00
56542;DHT22;42438;53.174;6.730;2023-06-26T16:07:59;21.50;1.00
56542;DHT22;42438;53.174;6.730;2023-06-26T16:10:30;21.40;1.00
56542;DHT22;42438;53.174;6.730;2023-06-26T16:13:00;21.30;1.00
56542;DHT22;42438;53.174;6.730;2023-06-26T16:15:31;21.30;1.00
56542;DHT22;42438;53.174;6.730;2023-06-26T16:18:02;21.40;1.00
56542;DHT22;42438;53.174;6.730;2023-06-26T16:20:32;21.40;1.00